createdAt,value
2023-02-13T00:00:11.561Z,1034.91
2023-02-13T00:00:41.578Z,1034.71
2023-02-13T00:01:12.670Z,1034.71
2023-02-13T00:01:43.698Z,1034.61
2023-02-13T00:02:14.314Z,1034.61
2023-02-13T00:02:45.838Z,1034.61
2023-02-13T00:03:16.277Z,1034.61
2023-02-13T00:03:47.561Z,1034.71
2023-02-13T00:04:18.595Z,1034.71
2023-02-13T00:04:49.547Z,1034.71
2023-02-13T00:05:21.595Z,1034.71
2023-02-13T00:05:51.536Z,1034.61
2023-02-13T00:06:22.632Z,1034.61
2023-02-13T00:06:53.758Z,1034.71
2023-02-13T00:07:24.496Z,1034.71
2023-02-13T00:07:55.484Z,1034.71
2023-02-13T00:08:26.520Z,1034.71
2023-02-13T00:08:58.310Z,1034.81
2023-02-13T00:09:28.588Z,1034.81
2023-02-13T00:09:59.692Z,1034.61
2023-02-13T00:10:31.061Z,1034.61
2023-02-13T00:11:01.645Z,1034.81
2023-02-13T00:11:32.296Z,1034.81
2023-02-13T00:12:03.341Z,1034.81
2023-02-13T00:12:34.744Z,1034.81
2023-02-13T00:13:05.964Z,1034.51
2023-02-13T00:13:36.696Z,1034.51
2023-02-13T00:14:07.308Z,1034.61
2023-02-13T00:14:38.771Z,1034.61
2023-02-13T00:15:10.247Z,1034.61
2023-02-13T00:15:40.672Z,1034.61
2023-02-13T00:16:11.656Z,1034.61
2023-02-13T00:16:42.354Z,1034.61
2023-02-13T00:17:13.515Z,1034.61
2023-02-13T00:17:44.534Z,1034.61
2023-02-13T00:18:15.850Z,1034.61
2023-02-13T00:18:46.561Z,1034.81
2023-02-13T00:19:17.451Z,1034.81
2023-02-13T00:19:48.549Z,1034.81
2023-02-13T00:20:20.081Z,1034.81
2023-02-13T00:20:50.592Z,1034.61
2023-02-13T00:21:21.692Z,1034.61
2023-02-13T00:21:52.700Z,1034.71
2023-02-13T00:22:23.588Z,1034.71
2023-02-13T00:22:54.547Z,1034.61
2023-02-13T00:23:26.616Z,1034.61
2023-02-13T00:23:56.512Z,1034.71
2023-02-13T00:24:28.905Z,1034.71
2023-02-13T00:24:58.664Z,1034.61
2023-02-13T00:25:30.722Z,1034.61
2023-02-13T00:26:00.753Z,1034.81
2023-02-13T00:26:31.347Z,1034.81
2023-02-13T00:27:02.501Z,1034.81
2023-02-13T00:27:33.612Z,1034.81
2023-02-13T00:28:04.575Z,1034.71
2023-02-13T00:28:36.219Z,1034.71
2023-02-13T00:29:06.431Z,1034.71
2023-02-13T00:29:37.752Z,1034.61
2023-02-13T00:30:09.738Z,1034.61
2023-02-13T00:30:39.985Z,1034.61
2023-02-13T00:31:11.102Z,1034.61
2023-02-13T00:31:41.835Z,1034.81
2023-02-13T00:32:13.072Z,1034.81
2023-02-13T00:32:43.818Z,1034.61
2023-02-13T00:33:14.763Z,1034.61
2023-02-13T00:33:45.436Z,1034.71
2023-02-13T00:34:16.381Z,1034.71
2023-02-13T00:34:47.430Z,1034.81
2023-02-13T00:35:19.366Z,1034.81
2023-02-13T00:35:51.496Z,1034.61
2023-02-13T00:36:21.794Z,1034.61
2023-02-13T00:36:51.936Z,1034.61
2023-02-13T00:37:22.785Z,1034.61
2023-02-13T00:37:53.859Z,1034.61
2023-02-13T00:38:24.788Z,1034.61
2023-02-13T00:38:55.409Z,1034.81
2023-02-13T00:39:26.511Z,1034.81
2023-02-13T00:39:58.161Z,1034.61
2023-02-13T00:40:28.942Z,1034.61
2023-02-13T00:40:59.860Z,1034.81
2023-02-13T00:41:30.883Z,1034.81
2023-02-13T00:42:02.226Z,1034.61
2023-02-13T00:42:32.617Z,1034.61
2023-02-13T00:43:03.426Z,1034.61
2023-02-13T00:43:35.107Z,1034.61
2023-02-13T00:44:06.311Z,1034.51
2023-02-13T00:44:37.079Z,1034.51
2023-02-13T00:45:08.624Z,1034.61
2023-02-13T00:45:38.715Z,1034.61
2023-02-13T00:46:09.795Z,1034.61
2023-02-13T00:46:40.830Z,1034.61
2023-02-13T00:47:11.718Z,1034.61
2023-02-13T00:47:43.274Z,1034.71
2023-02-13T00:48:13.684Z,1034.71
2023-02-13T00:48:44.426Z,1034.51
2023-02-13T00:49:15.754Z,1034.51
2023-02-13T00:49:46.383Z,1034.61
2023-02-13T00:50:18.653Z,1034.61
2023-02-13T00:50:48.824Z,1034.71
2023-02-13T00:51:19.772Z,1034.71
2023-02-13T00:51:51.006Z,1034.71
2023-02-13T00:52:21.464Z,1034.71
2023-02-13T00:52:52.689Z,1034.81
2023-02-13T00:53:23.605Z,1034.81
2023-02-13T00:53:54.444Z,1034.81
2023-02-13T00:54:25.659Z,1034.81
2023-02-13T00:54:58.279Z,1034.81
2023-02-13T00:55:28.355Z,1034.81
2023-02-13T00:56:00.409Z,1034.61
2023-02-13T00:56:29.850Z,1034.61
2023-02-13T00:57:00.817Z,1034.71
2023-02-13T00:57:31.511Z,1034.71
2023-02-13T00:58:02.539Z,1034.71
2023-02-13T00:58:34.127Z,1034.71
2023-02-13T00:59:04.751Z,1034.71
2023-02-13T00:59:35.724Z,1034.71
2023-02-13T01:00:07.978Z,1034.61
2023-02-13T01:00:37.939Z,1034.61
2023-02-13T01:01:08.831Z,1034.61
2023-02-13T01:01:39.578Z,1034.81
2023-02-13T01:02:10.744Z,1034.81
2023-02-13T01:02:41.883Z,1034.81
2023-02-13T01:03:12.905Z,1034.81
2023-02-13T01:03:43.825Z,1034.81
2023-02-13T01:04:14.485Z,1034.81
2023-02-13T01:04:45.840Z,1034.61
2023-02-13T01:05:17.066Z,1034.61
2023-02-13T01:05:47.848Z,1034.81
2023-02-13T01:06:18.684Z,1034.81
2023-02-13T01:06:49.677Z,1034.71
2023-02-13T01:07:20.770Z,1034.71
2023-02-13T01:07:51.821Z,1034.71
2023-02-13T01:08:22.785Z,1034.71
2023-02-13T01:08:53.522Z,1034.81
2023-02-13T01:09:24.796Z,1034.81
2023-02-13T01:09:55.844Z,1034.81
2023-02-13T01:10:26.983Z,1034.81
2023-02-13T01:10:58.076Z,1034.71
2023-02-13T01:11:28.772Z,1034.71
2023-02-13T01:11:59.749Z,1034.81
2023-02-13T01:12:31.047Z,1034.81
2023-02-13T01:13:01.566Z,1034.61
2023-02-13T01:13:32.705Z,1034.61
2023-02-13T01:14:03.552Z,1034.91
2023-02-13T01:14:34.685Z,1034.91
2023-02-13T01:15:06.623Z,1034.91
2023-02-13T01:15:36.951Z,1034.91
2023-02-13T01:16:07.614Z,1034.71
2023-02-13T01:16:39.004Z,1035.01
2023-02-13T01:17:09.780Z,1035.01
2023-02-13T01:17:40.497Z,1034.81
2023-02-13T01:18:11.747Z,1034.81
2023-02-13T01:18:43.086Z,1034.71
2023-02-13T01:19:13.706Z,1034.71
2023-02-13T01:19:45.067Z,1034.71
2023-02-13T01:20:16.123Z,1034.71
2023-02-13T01:20:46.493Z,1034.81
2023-02-13T01:21:17.547Z,1034.81
2023-02-13T01:21:48.743Z,1034.71
2023-02-13T01:22:19.770Z,1034.71
2023-02-13T01:22:50.758Z,1034.81
2023-02-13T01:23:21.724Z,1034.81
2023-02-13T01:23:52.814Z,1034.91
2023-02-13T01:24:23.710Z,1034.91
2023-02-13T01:24:54.759Z,1034.81
2023-02-13T01:25:26.611Z,1034.81
2023-02-13T01:25:56.775Z,1034.81
2023-02-13T01:26:28.689Z,1034.81
2023-02-13T01:26:58.649Z,1034.71
2023-02-13T01:27:30.588Z,1034.71
2023-02-13T01:28:00.820Z,1034.91
2023-02-13T01:28:31.597Z,1034.91
2023-02-13T01:29:02.795Z,1034.71
2023-02-13T01:29:33.753Z,1034.71
2023-02-13T01:30:05.814Z,1034.81
2023-02-13T01:30:35.639Z,1034.81
2023-02-13T01:31:06.911Z,1034.71
2023-02-13T01:31:37.720Z,1034.51
2023-02-13T01:32:08.748Z,1034.51
2023-02-13T01:32:39.796Z,1034.61
2023-02-13T01:33:10.562Z,1034.61
2023-02-13T01:33:41.771Z,1034.61
2023-02-13T01:34:12.539Z,1034.61
2023-02-13T01:34:43.991Z,1034.81
2023-02-13T01:35:15.364Z,1034.81
2023-02-13T01:35:45.759Z,1034.71
2023-02-13T01:36:16.734Z,1034.71
2023-02-13T01:36:47.808Z,1034.71
2023-02-13T01:37:18.824Z,1034.71
2023-02-13T01:37:49.768Z,1034.71
2023-02-13T01:38:20.550Z,1034.71
2023-02-13T01:38:51.809Z,1034.61
2023-02-13T01:39:22.773Z,1034.61
2023-02-13T01:39:53.782Z,1034.91
2023-02-13T01:40:25.356Z,1034.91
2023-02-13T01:40:56.295Z,1034.61
2023-02-13T01:41:26.868Z,1034.61
2023-02-13T01:41:57.845Z,1034.71
2023-02-13T01:42:29.071Z,1034.71
2023-02-13T01:42:59.881Z,1034.61
2023-02-13T01:43:30.880Z,1034.61
2023-02-13T01:44:01.932Z,1034.61
2023-02-13T01:44:33.002Z,1034.61
2023-02-13T01:45:05.135Z,1034.61
2023-02-13T01:45:34.930Z,1034.61
2023-02-13T01:46:05.738Z,1034.61
2023-02-13T01:46:37.217Z,1034.61
2023-02-13T01:47:08.216Z,1034.71
2023-02-13T01:47:39.119Z,1034.40
2023-02-13T01:48:09.700Z,1034.40
2023-02-13T01:48:41.496Z,1034.61
2023-02-13T01:49:12.052Z,1034.61
2023-02-13T01:49:42.851Z,1034.51
2023-02-13T01:50:14.278Z,1034.51
2023-02-13T01:50:45.029Z,1034.61
2023-02-13T01:51:15.921Z,1034.61
2023-02-13T01:51:46.870Z,1034.61
2023-02-13T01:52:18.712Z,1034.61
2023-02-13T01:52:48.656Z,1034.40
2023-02-13T01:53:20.275Z,1034.40
2023-02-13T01:53:51.574Z,1034.51
2023-02-13T01:54:22.234Z,1034.51
2023-02-13T01:54:52.803Z,1034.40
2023-02-13T01:55:24.115Z,1034.40
2023-02-13T01:55:54.739Z,1034.61
2023-02-13T01:56:26.171Z,1034.61
2023-02-13T01:56:56.894Z,1034.51
2023-02-13T01:57:27.890Z,1034.51
2023-02-13T01:58:00.075Z,1034.71
2023-02-13T01:58:29.662Z,1034.71
2023-02-13T01:59:02.159Z,1034.61
2023-02-13T01:59:32.078Z,1034.61
2023-02-13T02:00:04.047Z,1034.61
2023-02-13T02:00:34.298Z,1034.61
2023-02-13T02:01:04.658Z,1034.61
2023-02-13T02:01:36.063Z,1034.61
2023-02-13T02:02:06.790Z,1034.61
2023-02-13T02:02:38.123Z,1034.81
2023-02-13T02:03:09.088Z,1034.81
2023-02-13T02:03:39.938Z,1034.91
2023-02-13T02:04:11.098Z,1034.91
2023-02-13T02:04:42.104Z,1034.71
2023-02-13T02:05:13.266Z,1034.71
2023-02-13T02:05:43.835Z,1034.40
2023-02-13T02:06:14.701Z,1034.40
2023-02-13T02:06:45.741Z,1034.40
2023-02-13T02:07:16.845Z,1034.40
2023-02-13T02:07:48.090Z,1034.71
2023-02-13T02:08:19.004Z,1034.71
2023-02-13T02:08:49.828Z,1034.40
2023-02-13T02:09:20.728Z,1034.40
2023-02-13T02:09:52.113Z,1034.71
2023-02-13T02:10:23.870Z,1034.71
2023-02-13T02:10:53.730Z,1034.51
2023-02-13T02:11:24.653Z,1034.51
2023-02-13T02:11:55.874Z,1034.61
2023-02-13T02:12:26.768Z,1034.61
2023-02-13T02:12:57.711Z,1034.51
2023-02-13T02:13:29.122Z,1034.51
2023-02-13T02:14:00.039Z,1034.71
2023-02-13T02:14:30.721Z,1034.71
2023-02-13T02:15:02.930Z,1034.61
2023-02-13T02:15:33.249Z,1034.61
2023-02-13T02:16:03.796Z,1034.61
2023-02-13T02:16:34.862Z,1034.61
2023-02-13T02:17:05.957Z,1034.51
2023-02-13T02:17:36.750Z,1034.51
2023-02-13T02:18:08.236Z,1034.71
2023-02-13T02:18:39.139Z,1034.81
2023-02-13T02:19:10.362Z,1034.81
2023-02-13T02:19:40.781Z,1034.61
2023-02-13T02:20:12.485Z,1034.61
2023-02-13T02:20:43.397Z,1034.61
2023-02-13T02:21:14.046Z,1034.61
2023-02-13T02:21:45.158Z,1034.51
2023-02-13T02:22:15.764Z,1034.51
2023-02-13T02:22:46.741Z,1034.71
2023-02-13T02:23:17.801Z,1034.71
2023-02-13T02:23:48.906Z,1034.61
2023-02-13T02:24:19.972Z,1034.61
2023-02-13T02:24:51.089Z,1034.51
2023-02-13T02:25:22.636Z,1034.51
2023-02-13T02:25:53.015Z,1034.71
2023-02-13T02:26:24.085Z,1034.71
2023-02-13T02:26:54.965Z,1034.61
2023-02-13T02:27:26.068Z,1034.61
2023-02-13T02:27:56.895Z,1034.61
2023-02-13T02:28:28.117Z,1034.61
2023-02-13T02:28:58.830Z,1034.51
2023-02-13T02:29:31.007Z,1034.51
2023-02-13T02:30:01.892Z,1034.40
2023-02-13T02:30:32.556Z,1034.40
2023-02-13T02:31:03.040Z,1034.51
2023-02-13T02:31:34.213Z,1034.51
2023-02-13T02:32:05.188Z,1034.40
2023-02-13T02:32:36.129Z,1034.40
2023-02-13T02:33:07.760Z,1034.40
2023-02-13T02:33:37.892Z,1034.51
2023-02-13T02:34:08.868Z,1034.51
2023-02-13T02:34:40.009Z,1034.71
2023-02-13T02:35:11.968Z,1034.71
2023-02-13T02:35:42.061Z,1034.81
2023-02-13T02:36:13.115Z,1034.81
2023-02-13T02:36:44.217Z,1034.51
2023-02-13T02:37:15.514Z,1034.51
2023-02-13T02:37:46.110Z,1034.40
2023-02-13T02:38:17.051Z,1034.40
2023-02-13T02:38:48.656Z,1034.61
2023-02-13T02:39:19.199Z,1034.61
2023-02-13T02:39:50.169Z,1034.51
2023-02-13T02:40:21.740Z,1034.51
2023-02-13T02:40:51.880Z,1034.51
2023-02-13T02:41:22.939Z,1034.51
2023-02-13T02:41:54.051Z,1034.30
2023-02-13T02:42:25.336Z,1034.30
2023-02-13T02:42:55.965Z,1034.71
2023-02-13T02:43:27.125Z,1034.71
2023-02-13T02:43:58.349Z,1034.61
2023-02-13T02:44:29.637Z,1034.61
2023-02-13T02:45:01.587Z,1034.51
2023-02-13T02:45:31.347Z,1034.51
2023-02-13T02:46:02.607Z,1034.51
2023-02-13T02:46:33.534Z,1034.51
2023-02-13T02:47:04.277Z,1034.51
2023-02-13T02:47:35.613Z,1034.51
2023-02-13T02:48:05.838Z,1034.51
2023-02-13T02:48:37.944Z,1034.61
2023-02-13T02:49:08.116Z,1034.61
2023-02-13T02:49:39.452Z,1034.30
2023-02-13T02:50:10.983Z,1034.30
2023-02-13T02:50:41.224Z,1034.51
2023-02-13T02:51:12.446Z,1034.51
2023-02-13T02:51:43.400Z,1034.71
2023-02-13T02:52:14.681Z,1034.71
2023-02-13T02:52:44.836Z,1034.51
2023-02-13T02:53:16.342Z,1034.51
2023-02-13T02:53:47.123Z,1034.51
2023-02-13T02:54:18.290Z,1034.51
2023-02-13T02:54:48.889Z,1034.51
2023-02-13T02:55:21.280Z,1034.51
2023-02-13T02:55:51.359Z,1034.51
2023-02-13T02:56:22.339Z,1034.51
2023-02-13T02:56:53.582Z,1034.51
2023-02-13T02:57:24.314Z,1034.51
2023-02-13T02:57:54.886Z,1034.51
2023-02-13T02:58:26.678Z,1034.51
2023-02-13T02:58:57.327Z,1034.40
2023-02-13T02:59:28.678Z,1034.40
2023-02-13T02:59:58.905Z,1034.51
2023-02-13T03:00:31.186Z,1034.51
2023-02-13T03:01:02.749Z,1034.61
2023-02-13T03:01:32.240Z,1034.61
2023-02-13T03:02:04.801Z,1034.61
2023-02-13T03:02:33.901Z,1034.61
2023-02-13T03:03:05.968Z,1034.40
2023-02-13T03:03:36.439Z,1034.40
2023-02-13T03:04:07.406Z,1034.40
2023-02-13T03:04:37.981Z,1034.51
2023-02-13T03:05:09.725Z,1034.51
2023-02-13T03:05:40.883Z,1034.40
2023-02-13T03:06:11.570Z,1034.40
2023-02-13T03:06:41.919Z,1034.40
2023-02-13T03:07:13.347Z,1034.40
2023-02-13T03:07:43.982Z,1034.61
2023-02-13T03:08:15.517Z,1034.61
2023-02-13T03:08:46.589Z,1034.51
2023-02-13T03:09:16.906Z,1034.51
2023-02-13T03:09:48.423Z,1034.61
2023-02-13T03:10:20.111Z,1034.61
2023-02-13T03:10:50.801Z,1034.51
2023-02-13T03:11:21.717Z,1034.51
2023-02-13T03:11:51.984Z,1034.91
2023-02-13T03:12:23.447Z,1034.91
2023-02-13T03:12:54.517Z,1034.61
2023-02-13T03:13:25.083Z,1034.61
2023-02-13T03:13:55.944Z,1034.61
2023-02-13T03:14:27.529Z,1034.61
2023-02-13T03:14:57.972Z,1034.71
2023-02-13T03:15:30.690Z,1034.71
2023-02-13T03:16:00.086Z,1034.51
2023-02-13T03:16:31.311Z,1034.51
2023-02-13T03:17:02.401Z,1034.71
2023-02-13T03:17:32.881Z,1034.71
2023-02-13T03:18:04.400Z,1034.51
2023-02-13T03:18:35.225Z,1034.51
2023-02-13T03:19:06.004Z,1034.51
2023-02-13T03:19:37.621Z,1034.51
2023-02-13T03:20:08.438Z,1034.71
2023-02-13T03:20:39.242Z,1034.91
2023-02-13T03:21:10.567Z,1034.91
2023-02-13T03:21:41.701Z,1034.81
2023-02-13T03:22:12.357Z,1034.81
2023-02-13T03:22:42.965Z,1034.61
2023-02-13T03:23:14.427Z,1034.61
2023-02-13T03:23:44.959Z,1035.01
2023-02-13T03:24:16.480Z,1035.01
2023-02-13T03:24:47.005Z,1034.61
2023-02-13T03:25:18.552Z,1034.61
2023-02-13T03:25:49.662Z,1034.81
2023-02-13T03:26:20.555Z,1034.81
2023-02-13T03:26:51.564Z,1034.71
2023-02-13T03:27:22.381Z,1034.71
2023-02-13T03:27:53.020Z,1034.71
2023-02-13T03:28:23.962Z,1034.71
2023-02-13T03:28:54.993Z,1034.61
2023-02-13T03:29:26.370Z,1034.61
2023-02-13T03:29:57.000Z,1034.71
2023-02-13T03:30:29.792Z,1034.71
2023-02-13T03:30:59.907Z,1035.01
2023-02-13T03:31:30.295Z,1035.01
2023-02-13T03:32:00.980Z,1034.71
2023-02-13T03:32:34.041Z,1034.71
2023-02-13T03:33:03.226Z,1034.91
2023-02-13T03:33:36.394Z,1034.91
2023-02-13T03:34:04.964Z,1034.71
2023-02-13T03:34:36.949Z,1034.71
2023-02-13T03:35:07.360Z,1034.71
2023-02-13T03:35:38.342Z,1034.51
2023-02-13T03:36:09.472Z,1034.51
2023-02-13T03:36:40.637Z,1034.71
2023-02-13T03:37:11.039Z,1034.71
2023-02-13T03:37:42.235Z,1035.01
2023-02-13T03:38:13.197Z,1035.01
2023-02-13T03:38:44.260Z,1034.81
2023-02-13T03:39:15.240Z,1034.81
2023-02-13T03:39:46.448Z,1034.81
2023-02-13T03:40:17.618Z,1034.81
2023-02-13T03:40:48.399Z,1034.81
2023-02-13T03:41:19.496Z,1034.81
2023-02-13T03:41:51.218Z,1034.71
2023-02-13T03:42:22.543Z,1034.71
2023-02-13T03:42:52.269Z,1034.91
2023-02-13T03:43:23.541Z,1034.91
2023-02-13T03:43:54.300Z,1035.12
2023-02-13T03:44:25.024Z,1035.12
2023-02-13T03:44:56.072Z,1034.81
2023-02-13T03:45:28.582Z,1034.81
2023-02-13T03:45:58.532Z,1034.91
2023-02-13T03:46:29.348Z,1034.91
2023-02-13T03:47:00.372Z,1035.01
2023-02-13T03:47:31.382Z,1035.01
2023-02-13T03:48:02.068Z,1035.12
2023-02-13T03:48:33.476Z,1035.12
2023-02-13T03:49:04.359Z,1035.12
2023-02-13T03:49:35.102Z,1035.12
2023-02-13T03:50:06.842Z,1035.01
2023-02-13T03:50:37.278Z,1035.01
2023-02-13T03:51:08.238Z,1035.01
2023-02-13T03:51:39.558Z,1034.91
2023-02-13T03:52:10.130Z,1034.91
2023-02-13T03:52:41.168Z,1034.91
2023-02-13T03:53:12.028Z,1034.91
2023-02-13T03:53:43.441Z,1034.91
2023-02-13T03:54:14.329Z,1034.91
2023-02-13T03:54:45.283Z,1035.01
2023-02-13T03:55:16.683Z,1035.01
2023-02-13T03:55:47.550Z,1035.01
2023-02-13T03:56:18.247Z,1035.01
2023-02-13T03:56:49.518Z,1035.01
2023-02-13T03:57:20.108Z,1035.01
2023-02-13T03:57:51.029Z,1035.12
2023-02-13T03:58:22.662Z,1035.12
2023-02-13T03:58:53.408Z,1034.91
2023-02-13T03:59:24.476Z,1034.91
2023-02-13T03:59:55.228Z,1035.12
2023-02-13T04:00:27.639Z,1035.12
2023-02-13T04:00:58.087Z,1034.91
2023-02-13T04:01:28.554Z,1034.91
2023-02-13T04:01:59.347Z,1034.81
2023-02-13T04:02:30.483Z,1034.81
2023-02-13T04:03:01.095Z,1035.12
2023-02-13T04:03:32.207Z,1035.12
2023-02-13T04:04:04.141Z,1035.01
2023-02-13T04:04:34.557Z,1035.01
2023-02-13T04:05:08.168Z,1035.01
2023-02-13T04:05:36.350Z,1035.01
2023-02-13T04:06:08.685Z,1035.18
2023-02-13T04:06:38.486Z,1035.01
2023-02-13T04:07:09.434Z,1035.01
2023-02-13T04:07:40.116Z,1035.12
2023-02-13T04:08:11.116Z,1035.12
2023-02-13T04:08:42.038Z,1035.29
2023-02-13T04:09:13.375Z,1035.29
2023-02-13T04:09:44.597Z,1035.12
2023-02-13T04:10:15.891Z,1035.12
2023-02-13T04:10:46.397Z,1035.12
2023-02-13T04:11:17.732Z,1035.12
2023-02-13T04:11:48.500Z,1035.18
2023-02-13T04:12:19.821Z,1035.18
2023-02-13T04:12:50.347Z,1034.91
2023-02-13T04:13:21.289Z,1034.91
2023-02-13T04:13:52.157Z,1034.91
2023-02-13T04:14:23.517Z,1034.91
2023-02-13T04:14:54.102Z,1035.12
2023-02-13T04:15:26.766Z,1035.12
2023-02-13T04:15:56.516Z,1035.01
2023-02-13T04:16:27.349Z,1035.01
2023-02-13T04:16:58.373Z,1035.18
2023-02-13T04:17:29.662Z,1035.18
2023-02-13T04:18:00.503Z,1035.12
2023-02-13T04:18:31.319Z,1035.12
2023-02-13T04:19:02.296Z,1035.12
2023-02-13T04:19:33.164Z,1035.12
2023-02-13T04:20:04.486Z,1035.01
2023-02-13T04:20:35.526Z,1035.01
2023-02-13T04:21:06.545Z,1035.12
2023-02-13T04:21:37.544Z,1035.12
2023-02-13T04:22:08.828Z,1035.29
2023-02-13T04:22:39.420Z,1035.18
2023-02-13T04:23:10.112Z,1035.18
2023-02-13T04:23:41.147Z,1035.12
2023-02-13T04:24:12.565Z,1035.12
2023-02-13T04:24:43.210Z,1035.01
2023-02-13T04:25:14.798Z,1035.01
2023-02-13T04:25:45.365Z,1035.01
2023-02-13T04:26:16.661Z,1035.01
2023-02-13T04:26:47.126Z,1035.12
2023-02-13T04:27:18.859Z,1035.12
2023-02-13T04:27:49.196Z,1035.12
2023-02-13T04:28:20.223Z,1035.12
2023-02-13T04:28:51.221Z,1034.91
2023-02-13T04:29:22.845Z,1034.91
2023-02-13T04:29:53.204Z,1035.12
2023-02-13T04:30:25.646Z,1035.12
2023-02-13T04:30:56.110Z,1035.12
2023-02-13T04:31:26.600Z,1035.12
2023-02-13T04:31:57.515Z,1035.18
2023-02-13T04:32:28.728Z,1035.18
2023-02-13T04:32:59.586Z,1034.91
2023-02-13T04:33:30.480Z,1034.91
2023-02-13T04:34:01.513Z,1035.18
2023-02-13T04:34:32.601Z,1035.18
2023-02-13T04:35:03.751Z,1035.18
2023-02-13T04:35:37.396Z,1035.18
2023-02-13T04:36:05.221Z,1034.91
2023-02-13T04:36:38.278Z,1035.12
2023-02-13T04:37:07.469Z,1035.12
2023-02-13T04:37:38.776Z,1035.01
2023-02-13T04:38:09.568Z,1035.01
2023-02-13T04:38:40.338Z,1035.12
2023-02-13T04:39:11.489Z,1035.12
2023-02-13T04:39:42.647Z,1035.18
2023-02-13T04:40:13.822Z,1035.18
2023-02-13T04:40:44.581Z,1035.18
2023-02-13T04:41:15.463Z,1035.18
2023-02-13T04:41:46.575Z,1035.18
2023-02-13T04:42:18.129Z,1035.18
2023-02-13T04:42:48.728Z,1035.39
2023-02-13T04:43:19.474Z,1035.39
2023-02-13T04:43:50.722Z,1035.12
2023-02-13T04:44:21.518Z,1035.12
2023-02-13T04:44:52.496Z,1035.12
2023-02-13T04:45:24.583Z,1035.12
2023-02-13T04:45:54.689Z,1035.12
2023-02-13T04:46:25.771Z,1035.12
2023-02-13T04:46:56.679Z,1035.18
2023-02-13T04:47:27.347Z,1035.18
2023-02-13T04:47:59.335Z,1035.12
2023-02-13T04:48:29.760Z,1035.12
2023-02-13T04:49:00.243Z,1035.12
2023-02-13T04:49:31.807Z,1035.12
2023-02-13T04:50:02.957Z,1035.12
2023-02-13T04:50:33.908Z,1035.12
2023-02-13T04:51:04.411Z,1035.18
2023-02-13T04:51:35.447Z,1035.18
2023-02-13T04:52:06.239Z,1035.12
2023-02-13T04:52:37.745Z,1035.12
2023-02-13T04:53:08.625Z,1035.12
2023-02-13T04:53:39.702Z,1035.12
2023-02-13T04:54:10.321Z,1035.12
2023-02-13T04:54:41.773Z,1035.12
2023-02-13T04:55:12.913Z,1035.12
2023-02-13T04:55:43.529Z,1035.01
2023-02-13T04:56:14.248Z,1035.01
2023-02-13T04:56:45.431Z,1034.71
2023-02-13T04:57:16.562Z,1034.71
2023-02-13T04:57:47.851Z,1034.91
2023-02-13T04:58:18.337Z,1034.91
2023-02-13T04:58:49.543Z,1034.91
2023-02-13T04:59:20.838Z,1034.91
2023-02-13T04:59:51.302Z,1035.01
2023-02-13T05:00:23.753Z,1035.01
2023-02-13T05:00:53.724Z,1035.18
2023-02-13T05:01:24.423Z,1035.18
2023-02-13T05:01:55.703Z,1034.91
2023-02-13T05:02:26.589Z,1034.91
2023-02-13T05:02:57.689Z,1035.12
2023-02-13T05:03:28.391Z,1035.12
2023-02-13T05:03:59.758Z,1035.12
2023-02-13T05:04:30.349Z,1035.12
2023-02-13T05:05:02.001Z,1034.91
2023-02-13T05:05:33.948Z,1034.91
2023-02-13T05:06:03.311Z,1034.91
2023-02-13T05:06:34.984Z,1034.91
2023-02-13T05:07:07.934Z,1035.01
2023-02-13T05:07:36.572Z,1035.01
2023-02-13T05:08:11.994Z,1035.12
2023-02-13T05:08:38.439Z,1034.81
2023-02-13T05:09:10.382Z,1034.81
2023-02-13T05:09:41.802Z,1034.91
2023-02-13T05:10:11.928Z,1034.91
2023-02-13T05:10:42.640Z,1035.18
2023-02-13T05:11:13.357Z,1035.18
2023-02-13T05:11:44.742Z,1034.81
2023-02-13T05:12:15.604Z,1034.81
2023-02-13T05:12:47.024Z,1035.01
2023-02-13T05:13:17.647Z,1035.01
2023-02-13T05:13:48.671Z,1034.81
2023-02-13T05:14:19.728Z,1034.81
2023-02-13T05:14:50.783Z,1034.81
2023-02-13T05:15:22.828Z,1034.81
2023-02-13T05:15:52.865Z,1035.12
2023-02-13T05:16:23.711Z,1035.12
2023-02-13T05:16:54.729Z,1034.91
2023-02-13T05:17:28.172Z,1034.91
2023-02-13T05:17:56.872Z,1035.01
2023-02-13T05:18:27.762Z,1035.01
2023-02-13T05:18:58.670Z,1035.01
2023-02-13T05:19:29.674Z,1035.01
2023-02-13T05:20:00.700Z,1034.81
2023-02-13T05:20:31.374Z,1034.81
2023-02-13T05:21:02.362Z,1035.12
2023-02-13T05:21:33.941Z,1035.12
2023-02-13T05:22:04.890Z,1035.12
2023-02-13T05:22:35.629Z,1035.12
2023-02-13T05:23:06.470Z,1034.81
2023-02-13T05:23:37.557Z,1034.81
2023-02-13T05:24:08.561Z,1035.18
2023-02-13T05:24:39.760Z,1035.18
2023-02-13T05:25:11.249Z,1035.18
2023-02-13T05:25:41.840Z,1035.12
2023-02-13T05:26:12.806Z,1035.12
2023-02-13T05:26:43.752Z,1035.01
2023-02-13T05:27:14.650Z,1035.01
2023-02-13T05:27:45.372Z,1034.61
2023-02-13T05:28:16.735Z,1034.61
2023-02-13T05:28:47.758Z,1035.12
2023-02-13T05:29:19.106Z,1035.12
2023-02-13T05:29:50.184Z,1035.01
2023-02-13T05:30:21.955Z,1035.01
2023-02-13T05:30:52.046Z,1034.91
2023-02-13T05:31:22.489Z,1034.91
2023-02-13T05:31:53.525Z,1035.12
2023-02-13T05:32:24.463Z,1035.12
2023-02-13T05:32:55.711Z,1035.01
2023-02-13T05:33:27.248Z,1035.01
2023-02-13T05:33:57.830Z,1035.01
2023-02-13T05:34:28.810Z,1035.01
2023-02-13T05:34:59.828Z,1035.12
2023-02-13T05:35:31.024Z,1035.12
2023-02-13T05:36:01.841Z,1035.01
2023-02-13T05:36:32.802Z,1035.01
2023-02-13T05:37:03.803Z,1034.91
2023-02-13T05:37:34.452Z,1034.91
2023-02-13T05:38:05.757Z,1035.12
2023-02-13T05:38:39.743Z,1035.12
2023-02-13T05:39:08.052Z,1035.12
2023-02-13T05:39:41.241Z,1035.01
2023-02-13T05:40:09.786Z,1035.01
2023-02-13T05:40:41.893Z,1035.12
2023-02-13T05:41:11.893Z,1035.12
2023-02-13T05:41:43.241Z,1035.01
2023-02-13T05:42:14.033Z,1035.01
2023-02-13T05:42:45.306Z,1035.18
2023-02-13T05:43:15.891Z,1035.18
2023-02-13T05:43:46.697Z,1035.18
2023-02-13T05:44:17.414Z,1035.18
2023-02-13T05:44:49.324Z,1034.81
2023-02-13T05:45:21.482Z,1034.81
2023-02-13T05:45:50.895Z,1035.12
2023-02-13T05:46:22.539Z,1035.12
2023-02-13T05:46:52.853Z,1035.01
2023-02-13T05:47:23.816Z,1035.01
2023-02-13T05:47:55.045Z,1035.18
2023-02-13T05:48:25.894Z,1035.18
2023-02-13T05:48:57.056Z,1035.01
2023-02-13T05:49:27.518Z,1035.01
2023-02-13T05:49:59.695Z,1035.18
2023-02-13T05:50:30.554Z,1035.18
2023-02-13T05:51:01.203Z,1035.18
2023-02-13T05:51:32.153Z,1035.18
2023-02-13T05:52:03.188Z,1035.12
2023-02-13T05:52:34.623Z,1035.12
2023-02-13T05:53:04.938Z,1035.18
2023-02-13T05:53:36.266Z,1035.18
2023-02-13T05:54:06.774Z,1035.12
2023-02-13T05:54:38.002Z,1035.12
2023-02-13T05:55:09.235Z,1035.12
2023-02-13T05:55:39.894Z,1035.01
2023-02-13T05:56:11.006Z,1035.01
2023-02-13T05:56:41.520Z,1035.12
2023-02-13T05:57:13.223Z,1035.12
2023-02-13T05:57:43.944Z,1034.91
2023-02-13T05:58:14.883Z,1034.91
2023-02-13T05:58:46.375Z,1035.12
2023-02-13T05:59:16.724Z,1035.12
2023-02-13T05:59:48.011Z,1035.01
2023-02-13T06:00:20.253Z,1035.01
2023-02-13T06:00:49.609Z,1035.18
2023-02-13T06:01:21.090Z,1035.18
2023-02-13T06:01:51.960Z,1035.18
2023-02-13T06:02:22.746Z,1035.18
2023-02-13T06:02:54.371Z,1035.18
2023-02-13T06:03:25.022Z,1035.18
2023-02-13T06:03:57.754Z,1035.18
2023-02-13T06:04:27.065Z,1035.18
2023-02-13T06:04:58.025Z,1035.01
2023-02-13T06:05:29.558Z,1035.01
2023-02-13T06:06:00.204Z,1035.18
2023-02-13T06:06:30.702Z,1035.18
2023-02-13T06:07:02.370Z,1035.12
2023-02-13T06:07:32.619Z,1035.12
2023-02-13T06:08:03.871Z,1035.18
2023-02-13T06:08:34.911Z,1035.18
2023-02-13T06:09:05.882Z,1035.12
2023-02-13T06:09:36.574Z,1035.12
2023-02-13T06:10:09.306Z,1035.12
2023-02-13T06:10:38.689Z,1035.18
2023-02-13T06:11:11.641Z,1035.18
2023-02-13T06:11:40.528Z,1035.01
2023-02-13T06:12:12.820Z,1035.01
2023-02-13T06:12:43.595Z,1035.01
2023-02-13T06:13:13.789Z,1035.01
2023-02-13T06:13:45.200Z,1035.01
2023-02-13T06:14:16.063Z,1035.01
2023-02-13T06:14:46.989Z,1035.12